createdAt,value
2019-04-25T00:00:01.946Z,18.3
2019-04-25T00:01:01.122Z,18.3
2019-04-25T00:02:01.811Z,18.3
2019-04-25T00:03:01.218Z,18.3
2019-04-25T00:04:01.992Z,18.2
2019-04-25T00:05:01.274Z,18.2
2019-04-25T00:06:02.245Z,18.2
2019-04-25T00:07:02.203Z,18.2
2019-04-25T00:08:01.492Z,18.2
2019-04-25T00:09:01.862Z,18.2
2019-04-25T00:10:01.575Z,18.2
2019-04-25T00:11:01.683Z,18.2
2019-04-25T00:12:02.232Z,18.1
2019-04-25T00:13:01.639Z,18.1
2019-04-25T00:14:01.533Z,18.1
2019-04-25T00:15:01.466Z,18.1
2019-04-25T00:16:01.822Z,18.1
2019-04-25T00:17:01.701Z,18
2019-04-25T00:18:02.314Z,18
2019-04-25T00:19:01.828Z,18
2019-04-25T00:20:01.661Z,18
2019-04-25T00:21:01.427Z,18
2019-04-25T00:22:01.959Z,18
2019-04-25T00:23:01.994Z,18
2019-04-25T00:24:02.606Z,18
2019-04-25T00:25:14.236Z,17.9
2019-04-25T00:26:01.566Z,17.9
2019-04-25T00:27:02.177Z,17.9
2019-04-25T00:28:01.857Z,17.9
2019-04-25T00:29:01.944Z,17.9
2019-04-25T00:30:01.903Z,17.9
2019-04-25T00:31:02.095Z,17.9
2019-04-25T00:32:01.823Z,17.9
2019-04-25T00:33:02.063Z,17.9
2019-04-25T00:34:02.209Z,17.8
2019-04-25T00:35:02.091Z,17.8
2019-04-25T00:36:03.784Z,17.8
2019-04-25T00:37:02.472Z,17.8
2019-04-25T00:38:02.406Z,17.8
2019-04-25T00:39:02.118Z,17.8
2019-04-25T00:40:02.046Z,17.8
2019-04-25T00:41:02.088Z,17.7
2019-04-25T00:42:02.434Z,17.7
2019-04-25T00:43:02.118Z,17.7
2019-04-25T00:44:02.426Z,17.7
2019-04-25T00:45:02.395Z,17.7
2019-04-25T00:46:02.195Z,17.7
2019-04-25T00:47:02.520Z,17.7
2019-04-25T00:48:04.305Z,17.7
2019-04-25T00:49:02.561Z,17.6
2019-04-25T00:50:02.463Z,17.6
2019-04-25T00:51:02.344Z,17.6
2019-04-25T00:52:02.358Z,17.6
2019-04-25T00:53:02.363Z,17.6
2019-04-25T00:54:02.530Z,17.5
2019-04-25T00:55:02.383Z,17.5
2019-04-25T00:56:02.428Z,17.5
2019-04-25T00:57:02.446Z,17.4
2019-04-25T00:58:03.342Z,17.4
2019-04-25T00:59:02.471Z,17.4
2019-04-25T01:00:02.494Z,17.3
2019-04-25T01:01:02.513Z,17.3
2019-04-25T01:02:02.518Z,17.3
2019-04-25T01:03:03.310Z,17.2
2019-04-25T01:04:02.535Z,17.2
2019-04-25T01:05:02.537Z,17.2
2019-04-25T01:06:03.753Z,17.2
2019-04-25T01:07:02.550Z,17.2
2019-04-25T01:08:02.575Z,17.2
2019-04-25T01:09:02.558Z,17.1
2019-04-25T01:10:02.684Z,17.1
2019-04-25T01:11:02.566Z,17.1
2019-04-25T01:12:04.046Z,17.1
2019-04-25T01:13:03.070Z,17
2019-04-25T01:14:02.599Z,17
2019-04-25T01:15:02.614Z,17
2019-04-25T01:16:04.048Z,17
2019-04-25T01:17:02.786Z,16.9
2019-04-25T01:18:02.798Z,16.9
2019-04-25T01:19:03.514Z,16.9
2019-04-25T01:20:04.146Z,16.9
2019-04-25T01:21:04.418Z,16.9
2019-04-25T01:22:03.818Z,16.8
2019-04-25T01:23:03.761Z,16.8
2019-04-25T01:24:04.266Z,16.8
2019-04-25T01:25:03.760Z,16.7
2019-04-25T01:26:03.330Z,16.7
2019-04-25T01:27:03.313Z,16.6
2019-04-25T01:28:03.294Z,16.5
2019-04-25T01:29:03.655Z,16.4
2019-04-25T01:30:03.968Z,16.4
2019-04-25T01:31:03.834Z,16.3
2019-04-25T01:32:03.421Z,16.2
2019-04-25T01:33:03.560Z,16.1
2019-04-25T01:34:04.327Z,16.1
2019-04-25T01:35:03.951Z,16
2019-04-25T01:36:03.595Z,15.9
2019-04-25T01:37:04.145Z,15.8
2019-04-25T01:38:03.742Z,15.8
2019-04-25T01:39:04.286Z,15.7
2019-04-25T01:40:04.100Z,15.7
2019-04-25T01:41:03.787Z,15.6
2019-04-25T01:42:05.261Z,15.5
2019-04-25T01:43:03.838Z,15.5
2019-04-25T01:44:04.499Z,15.4
2019-04-25T01:45:04.092Z,15.3
2019-04-25T01:46:03.991Z,15.3
2019-04-25T01:47:04.258Z,15.2
2019-04-25T01:48:04.139Z,15.1
2019-04-25T01:49:04.338Z,15
2019-04-25T01:50:04.229Z,15
2019-04-25T01:51:04.268Z,14.9
2019-04-25T01:52:04.314Z,14.9
2019-04-25T01:53:04.355Z,14.8
2019-04-25T01:54:04.421Z,14.8
2019-04-25T01:55:05.530Z,14.7
2019-04-25T01:56:07.560Z,14.7
2019-04-25T01:57:04.564Z,14.6
2019-04-25T01:58:04.578Z,14.5
2019-04-25T01:59:04.642Z,14.5
2019-04-25T02:00:04.657Z,14.5
2019-04-25T02:01:04.704Z,14.4
2019-04-25T02:02:06.651Z,14.4
2019-04-25T02:03:04.735Z,14.3
2019-04-25T02:04:04.757Z,14.2
2019-04-25T02:05:05.147Z,14.2
2019-04-25T02:06:05.087Z,14.1
2019-04-25T02:07:04.876Z,14.1
2019-04-25T02:08:06.868Z,14
2019-04-25T02:09:05.266Z,14
2019-04-25T02:10:04.999Z,13.9
2019-04-25T02:11:05.054Z,13.9
2019-04-25T02:12:05.064Z,13.8
2019-04-25T02:13:05.097Z,13.8
2019-04-25T02:14:05.264Z,13.8
2019-04-25T02:15:06.126Z,13.8
2019-04-25T02:16:05.377Z,13.8
2019-04-25T02:17:05.270Z,13.7
2019-04-25T02:18:05.333Z,13.7
2019-04-25T02:19:05.374Z,13.6
2019-04-25T02:20:05.368Z,13.6
2019-04-25T02:21:05.524Z,13.5
2019-04-25T02:22:05.454Z,13.5
2019-04-25T02:23:05.522Z,13.4
2019-04-25T02:24:05.723Z,13.4
2019-04-25T02:25:05.536Z,13.4
2019-04-25T02:26:15.125Z,13.3
2019-04-25T02:27:05.576Z,13.3
2019-04-25T02:28:05.786Z,13.2
2019-04-25T02:29:05.643Z,13.2
2019-04-25T02:30:06.834Z,13.1
2019-04-25T02:31:08.725Z,13.1
2019-04-25T02:32:08.892Z,13.1
2019-04-25T02:33:08.539Z,13
2019-04-25T02:34:08.305Z,13
2019-04-25T02:35:09.240Z,13
2019-04-25T02:36:08.511Z,13
2019-04-25T02:37:09.229Z,13
2019-04-25T02:38:08.728Z,13
2019-04-25T02:39:08.876Z,13
2019-04-25T02:40:07.975Z,13
2019-04-25T02:41:08.455Z,13
2019-04-25T02:42:08.187Z,13
2019-04-25T02:43:07.896Z,13
2019-04-25T02:44:09.513Z,13.1
2019-04-25T02:45:08.142Z,13.1
2019-04-25T02:46:07.652Z,13
2019-04-25T02:47:07.909Z,13
2019-04-25T02:48:07.016Z,13
2019-04-25T02:49:08.788Z,12.9
2019-04-25T02:50:08.365Z,12.8
2019-04-25T02:51:07.501Z,12.8
2019-04-25T02:52:07.376Z,12.7
2019-04-25T02:53:07.271Z,12.6
2019-04-25T02:54:08.023Z,12.6
2019-04-25T02:55:10.254Z,12.5
2019-04-25T02:56:25.956Z,12.4
2019-04-25T02:57:08.143Z,12.4
2019-04-25T02:58:09.735Z,12.4
2019-04-25T02:59:08.511Z,12.4
2019-04-25T03:00:08.326Z,12.3
2019-04-25T03:01:16.128Z,12.3
2019-04-25T03:02:08.531Z,12.3
2019-04-25T03:03:07.473Z,12.3
2019-04-25T03:04:09.465Z,12.3
2019-04-25T03:05:09.500Z,12.3
2019-04-25T03:06:09.252Z,12.3
2019-04-25T03:07:07.984Z,12.4
2019-04-25T03:08:08.765Z,12.4
2019-04-25T03:09:07.970Z,12.4
2019-04-25T03:10:09.742Z,12.3
2019-04-25T03:11:07.996Z,12.3
2019-04-25T03:12:07.902Z,12.3
2019-04-25T03:13:10.103Z,12.2
2019-04-25T03:14:08.618Z,12.2
2019-04-25T03:15:08.713Z,12.2
2019-04-25T03:16:09.013Z,12.2
2019-04-25T03:17:08.598Z,12.2
2019-04-25T03:18:10.751Z,12.2
2019-04-25T03:19:07.838Z,12.1
2019-04-25T03:20:09.500Z,12.1
2019-04-25T03:21:12.322Z,12.1
2019-04-25T03:22:09.931Z,12.1
2019-04-25T03:23:08.692Z,12
2019-04-25T03:24:10.090Z,12
2019-04-25T03:25:11.453Z,12
2019-04-25T03:26:07.485Z,12
2019-04-25T03:27:07.377Z,12
2019-04-25T03:28:07.221Z,12
2019-04-25T03:29:07.296Z,12
2019-04-25T03:30:11.687Z,12
2019-04-25T03:31:12.934Z,12
2019-04-25T03:32:11.696Z,12
2019-04-25T03:33:11.815Z,12
2019-04-25T03:34:11.822Z,12
2019-04-25T03:35:07.530Z,11.9
2019-04-25T03:36:07.863Z,11.9
2019-04-25T03:37:07.714Z,11.9
2019-04-25T03:38:08.372Z,11.9
2019-04-25T03:39:08.671Z,11.8
2019-04-25T03:40:07.913Z,11.8
2019-04-25T03:41:08.644Z,11.8
2019-04-25T03:42:07.820Z,11.8
2019-04-25T03:43:07.800Z,11.7
2019-04-25T03:44:07.992Z,11.7
2019-04-25T03:45:07.932Z,11.7
2019-04-25T03:46:08.213Z,11.7
2019-04-25T03:47:08.646Z,11.7
2019-04-25T03:48:08.015Z,11.6
2019-04-25T03:49:08.072Z,11.6
2019-04-25T03:50:08.209Z,11.6
2019-04-25T03:51:08.138Z,11.6
2019-04-25T03:52:08.182Z,11.6
2019-04-25T03:53:08.231Z,11.6
2019-04-25T03:54:09.296Z,11.7
2019-04-25T03:55:08.656Z,11.7
2019-04-25T03:56:08.626Z,11.7
2019-04-25T03:57:08.529Z,11.7
2019-04-25T03:58:10.638Z,11.7
2019-04-25T03:59:08.521Z,11.8
2019-04-25T04:00:08.756Z,11.8
2019-04-25T04:01:09.535Z,11.8
2019-04-25T04:02:09.094Z,11.9
2019-04-25T04:03:09.064Z,11.9
2019-04-25T04:04:09.057Z,12
2019-04-25T04:05:09.570Z,12
2019-04-25T04:06:09.779Z,12.1
2019-04-25T04:07:10.781Z,12.1
2019-04-25T04:08:09.688Z,12.1
2019-04-25T04:09:09.721Z,12.1
2019-04-25T04:10:08.880Z,12.2
2019-04-25T04:11:08.936Z,12.2
2019-04-25T04:12:08.953Z,12.2
2019-04-25T04:13:08.990Z,12.3
2019-04-25T04:14:09.033Z,12.3
2019-04-25T04:15:09.079Z,12.3
2019-04-25T04:16:09.116Z,12.3
2019-04-25T04:17:09.140Z,12.4
2019-04-25T04:18:09.161Z,12.4
2019-04-25T04:19:09.177Z,12.5
2019-04-25T04:20:09.194Z,12.5
2019-04-25T04:21:09.195Z,12.6
2019-04-25T04:22:09.208Z,12.7
2019-04-25T04:23:09.263Z,12.7
2019-04-25T04:24:09.601Z,12.8
2019-04-25T04:25:09.529Z,12.8
2019-04-25T04:26:09.528Z,12.9
2019-04-25T04:27:10.614Z,12.9
2019-04-25T04:28:09.745Z,12.9
2019-04-25T04:29:10.062Z,12.9
2019-04-25T04:30:10.049Z,13
2019-04-25T04:31:10.209Z,13
2019-04-25T04:32:10.468Z,13
2019-04-25T04:33:21.389Z,13
2019-04-25T04:34:09.557Z,13
2019-04-25T04:35:09.582Z,13
2019-04-25T04:36:09.604Z,13
2019-04-25T04:37:09.595Z,12.9
2019-04-25T04:38:09.666Z,12.9
2019-04-25T04:40:09.678Z,12.8
2019-04-25T04:41:09.759Z,12.8
2019-04-25T04:42:09.687Z,12.8
2019-04-25T04:43:09.714Z,12.8
2019-04-25T04:44:10.008Z,12.7
2019-04-25T04:45:10.155Z,12.7
2019-04-25T04:46:10.179Z,12.7
2019-04-25T04:48:10.226Z,12.7
2019-04-25T04:49:10.229Z,12.6
2019-04-25T04:50:10.576Z,12.6
2019-04-25T04:51:10.536Z,12.6
2019-04-25T04:52:10.528Z,12.6
2019-04-25T04:53:10.924Z,12.6
2019-04-25T04:54:09.858Z,12.6
2019-04-25T04:55:11.546Z,12.6
2019-04-25T04:56:09.875Z,12.6
2019-04-25T04:57:19.607Z,12.6
2019-04-25T04:58:10.365Z,12.6
2019-04-25T04:59:10.803Z,12.6
2019-04-25T05:00:10.241Z,12.6
2019-04-25T05:01:10.210Z,12.6
2019-04-25T05:02:10.625Z,12.6
2019-04-25T05:03:10.342Z,12.6
2019-04-25T05:04:10.593Z,12.6
2019-04-25T05:05:10.594Z,12.6
2019-04-25T05:06:10.914Z,12.6
2019-04-25T05:07:11.004Z,12.6
2019-04-25T05:08:11.033Z,12.6
2019-04-25T05:09:11.836Z,12.6
2019-04-25T05:10:10.437Z,12.6
2019-04-25T05:11:10.385Z,12.6
2019-04-25T05:12:10.691Z,12.6
2019-04-25T05:13:11.363Z,12.6
2019-04-25T05:14:11.032Z,12.6
2019-04-25T05:15:10.476Z,12.6
2019-04-25T05:16:11.141Z,12.6
2019-04-25T05:17:11.327Z,12.6
2019-04-25T05:18:11.494Z,12.6
2019-04-25T05:19:11.511Z,12.6
2019-04-25T05:20:10.697Z,12.6
2019-04-25T05:21:10.675Z,12.6
2019-04-25T05:22:10.746Z,12.6
2019-04-25T05:23:10.862Z,12.6
2019-04-25T05:24:10.832Z,12.6
2019-04-25T05:25:10.937Z,12.6
2019-04-25T05:26:10.935Z,12.6
2019-04-25T05:27:11.005Z,12.6
2019-04-25T05:28:10.983Z,12.6
2019-04-25T05:29:11.055Z,12.6
2019-04-25T05:30:11.108Z,12.6
2019-04-25T05:31:11.156Z,12.6
2019-04-25T05:32:11.256Z,12.6
2019-04-25T05:33:11.263Z,12.6
2019-04-25T05:34:11.300Z,12.7
2019-04-25T05:35:11.349Z,12.7
2019-04-25T05:36:11.399Z,12.8
2019-04-25T05:37:11.448Z,12.8
2019-04-25T05:38:13.163Z,12.9
2019-04-25T05:39:11.533Z,12.9
2019-04-25T05:40:11.581Z,13
2019-04-25T05:41:11.618Z,13
2019-04-25T05:42:11.709Z,13.1
2019-04-25T05:43:13.214Z,13.2
2019-04-25T05:44:11.772Z,13.2
2019-04-25T05:45:13.009Z,13.2
2019-04-25T05:46:13.192Z,13.3
2019-04-25T05:47:11.810Z,13.3
2019-04-25T05:48:11.820Z,13.4
2019-04-25T05:49:11.868Z,13.4
2019-04-25T05:50:11.887Z,13.4
2019-04-25T05:51:13.234Z,13.5
2019-04-25T05:52:11.925Z,13.5
2019-04-25T05:53:11.968Z,13.5
2019-04-25T05:54:11.993Z,13.6
2019-04-25T05:55:14.238Z,13.6
2019-04-25T05:56:14.554Z,13.6
2019-04-25T05:57:13.340Z,13.7
2019-04-25T05:58:13.438Z,13.7
2019-04-25T05:59:13.405Z,13.7
2019-04-25T06:00:13.396Z,13.8
2019-04-25T06:01:13.373Z,13.8
2019-04-25T06:02:13.857Z,13.8
2019-04-25T06:03:13.676Z,13.9
2019-04-25T06:04:13.900Z,13.9
2019-04-25T06:05:13.167Z,13.9
2019-04-25T06:06:13.397Z,13.9
2019-04-25T06:07:12.395Z,14
2019-04-25T06:08:13.946Z,14
2019-04-25T06:09:13.995Z,14
2019-04-25T06:10:14.258Z,14
2019-04-25T06:11:13.529Z,14.1
2019-04-25T06:12:13.430Z,14.1
2019-04-25T06:13:13.750Z,14.2
2019-04-25T06:14:13.497Z,14.2
2019-04-25T06:15:13.190Z,14.2
2019-04-25T06:16:13.348Z,14.3
2019-04-25T06:17:13.681Z,14.3
2019-04-25T06:18:13.976Z,14.4
2019-04-25T06:19:16.348Z,14.5
2019-04-25T06:20:13.409Z,14.6
2019-04-25T06:21:13.268Z,14.6
2019-04-25T06:22:13.056Z,14.7
2019-04-25T06:23:15.211Z,14.8
2019-04-25T06:24:13.272Z,14.8
2019-04-25T06:25:16.017Z,14.8
2019-04-25T06:26:20.508Z,14.9
2019-04-25T06:27:13.911Z,15
2019-04-25T06:28:13.708Z,15
2019-04-25T06:29:13.377Z,15.1
2019-04-25T06:30:13.953Z,15.1
2019-04-25T06:31:13.744Z,15.2
2019-04-25T06:32:14.200Z,15.3
2019-04-25T06:33:13.315Z,15.4
2019-04-25T06:34:14.051Z,15.5
2019-04-25T06:35:14.286Z,15.7
2019-04-25T06:36:13.950Z,15.8
2019-04-25T06:37:13.839Z,16
2019-04-25T06:38:13.313Z,16.1
2019-04-25T06:39:14.167Z,16.4
2019-04-25T06:40:13.666Z,16.6
2019-04-25T06:41:13.459Z,16.8
2019-04-25T06:42:13.802Z,17
2019-04-25T06:43:13.395Z,17.2
2019-04-25T06:44:13.665Z,17.4
2019-04-25T06:45:13.492Z,17.6
2019-04-25T06:46:14.030Z,17.9
2019-04-25T06:47:15.072Z,18.1
2019-04-25T06:48:13.963Z,18.3
2019-04-25T06:49:13.465Z,18.5
2019-04-25T06:50:45.417Z,18.7
2019-04-25T06:51:13.478Z,18.7
2019-04-25T06:52:13.889Z,18.9
2019-04-25T06:53:13.681Z,19
2019-04-25T06:54:13.556Z,19.2
2019-04-25T06:55:14.068Z,19.3
2019-04-25T06:56:13.781Z,19.5
2019-04-25T06:57:14.094Z,19.7
2019-04-25T06:58:14.506Z,19.9
2019-04-25T06:59:13.781Z,20
2019-04-25T07:00:14.132Z,20.2
2019-04-25T07:01:13.890Z,20.3
2019-04-25T07:02:14.096Z,20.4
2019-04-25T07:03:14.254Z,20.5
2019-04-25T07:04:14.108Z,20.7
2019-04-25T07:05:25.769Z,20.8
2019-04-25T07:06:14.706Z,21
2019-04-25T07:07:14.896Z,21.1
2019-04-25T07:08:14.125Z,21.2
2019-04-25T07:09:14.588Z,21.2
2019-04-25T07:10:14.217Z,21.3
2019-04-25T07:11:14.303Z,21.4
2019-04-25T07:12:14.348Z,21.5
2019-04-25T07:13:14.415Z,21.6
2019-04-25T07:14:14.439Z,21.7
2019-04-25T07:15:14.498Z,21.9
2019-04-25T07:16:14.478Z,22
2019-04-25T07:17:14.511Z,22.2
2019-04-25T07:18:14.603Z,22.4
2019-04-25T07:19:17.353Z,22.5
2019-04-25T07:20:14.601Z,22.7
2019-04-25T07:21:14.663Z,22.8
2019-04-25T07:22:15.442Z,22.9
2019-04-25T07:23:14.716Z,23
2019-04-25T07:24:17.408Z,23
2019-04-25T07:25:14.737Z,23
2019-04-25T07:26:14.741Z,23
2019-04-25T07:27:14.801Z,23.1
2019-04-25T07:28:23.504Z,23.1
2019-04-25T07:29:14.832Z,23.3
2019-04-25T07:30:26.831Z,23.3
2019-04-25T07:31:14.957Z,23.4
2019-04-25T07:32:14.970Z,23.4
2019-04-25T07:33:15.002Z,23.6
2019-04-25T07:34:15.040Z,23.7
2019-04-25T07:35:15.075Z,23.8
2019-04-25T07:36:15.590Z,23.9
2019-04-25T07:37:15.162Z,24
2019-04-25T07:38:15.303Z,24
2019-04-25T07:39:15.236Z,24.1
2019-04-25T07:40:15.254Z,24.1
2019-04-25T07:41:16.338Z,24.1
2019-04-25T07:42:15.324Z,24.1
2019-04-25T07:43:15.366Z,24.2
2019-04-25T07:44:15.424Z,24.3
2019-04-25T07:45:15.517Z,24.4
2019-04-25T07:46:15.683Z,24.5
2019-04-25T07:47:15.864Z,24.5
2019-04-25T07:48:15.520Z,24.4
2019-04-25T07:49:15.552Z,24.4
2019-04-25T07:50:15.522Z,24.3
2019-04-25T07:51:16.481Z,24.2
2019-04-25T07:52:15.608Z,24.1
2019-04-25T07:53:15.622Z,24.1
2019-04-25T07:54:15.643Z,24.1
2019-04-25T07:55:15.692Z,24.2
2019-04-25T07:56:15.709Z,24.2
2019-04-25T07:57:15.811Z,24.3
2019-04-25T07:58:15.819Z,24.3
2019-04-25T07:59:15.786Z,24.4
2019-04-25T08:00:15.808Z,24.5
2019-04-25T08:01:15.923Z,24.5
2019-04-25T08:02:15.856Z,24.6
2019-04-25T08:03:15.870Z,24.7
2019-04-25T08:04:15.883Z,24.8
2019-04-25T08:05:15.950Z,24.8
2019-04-25T08:06:15.961Z,24.9
2019-04-25T08:07:15.977Z,24.9
2019-04-25T08:08:15.978Z,25
2019-04-25T08:09:15.984Z,25.2
2019-04-25T08:10:15.983Z,25.3
2019-04-25T08:11:15.983Z,25.3
2019-04-25T08:12:16.009Z,25.3
2019-04-25T08:13:16.020Z,25.3
2019-04-25T08:14:16.026Z,25.3
2019-04-25T08:15:16.040Z,25.4
2019-04-25T08:16:16.063Z,25.5
2019-04-25T08:17:16.067Z,25.6
2019-04-25T08:18:16.063Z,25.7
2019-04-25T08:19:18.306Z,25.8
2019-04-25T08:20:16.073Z,25.8
2019-04-25T08:21:16.083Z,25.9
2019-04-25T08:22:16.082Z,25.9
2019-04-25T08:23:16.079Z,25.9
2019-04-25T08:24:16.078Z,26
2019-04-25T08:25:16.109Z,26
2019-04-25T08:26:16.099Z,26
2019-04-25T08:27:16.123Z,26.1
2019-04-25T08:28:16.118Z,26.1
2019-04-25T08:29:16.134Z,26.2
2019-04-25T08:30:16.102Z,26.3
2019-04-25T08:31:16.218Z,26.3
2019-04-25T08:32:16.253Z,26.4
2019-04-25T08:33:16.335Z,26.4
2019-04-25T08:34:16.421Z,26.4
2019-04-25T08:35:16.536Z,26.3
2019-04-25T08:36:16.493Z,26.2
2019-04-25T08:37:18.626Z,26.2
2019-04-25T08:38:16.584Z,26.1
2019-04-25T08:39:16.631Z,26.1
2019-04-25T08:40:16.690Z,26.1
2019-04-25T08:41:16.680Z,26.1
2019-04-25T08:42:16.733Z,26.1
2019-04-25T08:43:16.780Z,26.1
2019-04-25T08:44:16.870Z,26.1
2019-04-25T08:45:16.929Z,26.1
2019-04-25T08:46:16.967Z,26.2
2019-04-25T08:47:17.001Z,26.2
2019-04-25T08:48:17.078Z,26.2
2019-04-25T08:49:17.133Z,26.3
2019-04-25T08:50:26.641Z,26.3
2019-04-25T08:51:17.458Z,26.4
2019-04-25T08:52:17.282Z,26.4
2019-04-25T08:53:17.366Z,26.4
2019-04-25T08:54:17.417Z,26.4
2019-04-25T08:55:17.484Z,26.5
2019-04-25T08:56:18.536Z,26.4
2019-04-25T08:57:17.592Z,26.4
2019-04-25T08:58:17.727Z,26.4
2019-04-25T08:59:17.696Z,26.3
2019-04-25T09:00:17.759Z,26.3
2019-04-25T09:01:17.798Z,26.3
2019-04-25T09:02:17.833Z,26.4
2019-04-25T09:03:17.863Z,26.4
2019-04-25T09:04:17.897Z,26.5
2019-04-25T09:05:18.014Z,26.6
2019-04-25T09:06:17.993Z,26.8
2019-04-25T09:07:18.050Z,26.9
2019-04-25T09:08:18.121Z,26.9
2019-04-25T09:09:18.135Z,27
2019-04-25T09:10:18.255Z,27.1
2019-04-25T09:11:18.271Z,27.2
2019-04-25T09:12:18.264Z,27.3
2019-04-25T09:13:18.312Z,27.3
2019-04-25T09:14:18.369Z,27.3
2019-04-25T09:15:18.407Z,27.3
2019-04-25T09:16:18.463Z,27.3
2019-04-25T09:17:18.493Z,27.3
2019-04-25T09:18:18.530Z,27.2
2019-04-25T09:19:18.574Z,27.2
2019-04-25T09:20:18.621Z,27.1
2019-04-25T09:21:18.644Z,27.1
2019-04-25T09:22:18.679Z,27
2019-04-25T09:23:18.719Z,26.9
2019-04-25T09:24:18.785Z,26.8
2019-04-25T09:25:18.811Z,26.8
2019-04-25T09:26:18.814Z,26.8
2019-04-25T09:27:18.865Z,26.8
2019-04-25T09:28:18.874Z,26.8
2019-04-25T09:29:19.829Z,26.9
2019-04-25T09:30:18.917Z,26.9
2019-04-25T09:31:18.950Z,26.9
2019-04-25T09:32:21.423Z,27
2019-04-25T09:33:19.023Z,27
2019-04-25T09:34:19.009Z,27
2019-04-25T09:35:20.210Z,27
2019-04-25T09:36:19.046Z,27.1
2019-04-25T09:37:19.096Z,27.2
2019-04-25T09:38:19.119Z,27.3
2019-04-25T09:39:19.126Z,27.3
2019-04-25T09:40:19.189Z,27.4
2019-04-25T09:41:19.198Z,27.4
2019-04-25T09:42:19.234Z,27.4
2019-04-25T09:43:19.253Z,27.5
2019-04-25T09:44:19.243Z,27.5
2019-04-25T09:45:19.246Z,27.5
2019-04-25T09:46:19.278Z,27.6
2019-04-25T09:47:19.285Z,27.6
2019-04-25T09:48:19.284Z,27.6
2019-04-25T09:49:19.360Z,27.6
2019-04-25T09:50:19.332Z,27.6
2019-04-25T09:51:19.335Z,27.7
2019-04-25T09:52:19.383Z,27.8
2019-04-25T09:53:23.056Z,27.8
2019-04-25T09:54:19.365Z,27.9
2019-04-25T09:55:19.370Z,28
2019-04-25T09:56:19.365Z,28.1
2019-04-25T09:57:19.375Z,28.2
2019-04-25T09:58:19.418Z,28.2
2019-04-25T09:59:27.027Z,28.3
2019-04-25T10:00:19.487Z,28.4
2019-04-25T10:01:19.419Z,28.4
2019-04-25T10:02:19.418Z,28.4
2019-04-25T10:03:19.445Z,28.4
2019-04-25T10:04:19.453Z,28.5
2019-04-25T10:05:19.438Z,28.5
2019-04-25T10:06:19.452Z,28.5
2019-04-25T10:07:19.470Z,28.5
2019-04-25T10:08:19.445Z,28.4
2019-04-25T10:09:19.484Z,28.4
2019-04-25T10:10:19.533Z,28.5
2019-04-25T10:11:19.585Z,28.6
2019-04-25T10:12:19.609Z,28.7
2019-04-25T10:13:19.617Z,28.7
2019-04-25T10:14:19.646Z,28.8
2019-04-25T10:15:19.682Z,28.7
2019-04-25T10:16:19.758Z,28.7
2019-04-25T10:17:19.795Z,28.8
2019-04-25T10:18:19.869Z,28.8
2019-04-25T10:19:19.893Z,28.8
2019-04-25T10:20:19.972Z,28.7
2019-04-25T10:21:20.022Z,28.8
2019-04-25T10:22:20.072Z,28.8
2019-04-25T10:23:20.124Z,28.9
2019-04-25T10:24:20.183Z,29
2019-04-25T10:25:20.238Z,29
2019-04-25T10:26:20.285Z,28.9
2019-04-25T10:27:20.388Z,28.8
2019-04-25T10:28:20.417Z,28.6
2019-04-25T10:29:20.498Z,28.6
2019-04-25T10:30:23.461Z,28.6
2019-04-25T10:31:20.812Z,28.6
2019-04-25T10:32:20.539Z,28.6
2019-04-25T10:33:20.607Z,28.7
2019-04-25T10:34:20.587Z,28.7
2019-04-25T10:35:20.662Z,28.8
2019-04-25T10:36:20.729Z,28.9
2019-04-25T10:37:20.934Z,29
2019-04-25T10:38:20.889Z,29
2019-04-25T10:39:20.905Z,29
2019-04-25T10:40:20.878Z,29
2019-04-25T10:41:20.876Z,29
2019-04-25T10:42:20.893Z,28.9
2019-04-25T10:43:21.712Z,28.8
2019-04-25T10:44:21.018Z,28.7
2019-04-25T10:45:23.621Z,28.7
2019-04-25T10:46:21.048Z,28.6
2019-04-25T10:47:21.035Z,28.6
2019-04-25T10:48:21.084Z,28.6
2019-04-25T10:49:21.152Z,28.7
2019-04-25T10:50:21.195Z,28.6
2019-04-25T10:51:21.214Z,28.5
2019-04-25T10:52:21.283Z,28.4
2019-04-25T10:53:21.337Z,28.4
2019-04-25T10:54:21.391Z,28.4
2019-04-25T10:55:21.408Z,28.4
2019-04-25T10:56:21.488Z,28.5
2019-04-25T10:57:21.506Z,28.5
2019-04-25T10:58:21.553Z,28.5
2019-04-25T10:59:23.401Z,28.6
2019-04-25T11:00:21.655Z,28.6
2019-04-25T11:01:24.592Z,28.5
2019-04-25T11:02:23.464Z,28.5
2019-04-25T11:03:21.712Z,28.5
2019-04-25T11:04:21.787Z,28.5
2019-04-25T11:05:21.769Z,28.4
2019-04-25T11:06:23.286Z,28.3
2019-04-25T11:07:23.287Z,28.2
2019-04-25T11:08:21.927Z,28.2
2019-04-25T11:09:21.905Z,28.1
2019-04-25T11:10:23.474Z,28
2019-04-25T11:11:21.963Z,27.9
2019-04-25T11:12:23.464Z,27.9
2019-04-25T11:13:22.037Z,27.9
2019-04-25T11:14:23.712Z,27.8
2019-04-25T11:15:23.361Z,27.8
2019-04-25T11:16:22.142Z,27.7
2019-04-25T11:17:24.089Z,27.7
2019-04-25T11:18:23.800Z,27.7
2019-04-25T11:19:23.694Z,27.7
2019-04-25T11:20:23.176Z,27.7
2019-04-25T11:21:22.295Z,27.8
2019-04-25T11:22:23.880Z,27.8
2019-04-25T11:23:22.259Z,27.8
2019-04-25T11:24:23.640Z,27.7
2019-04-25T11:25:24.001Z,27.7
2019-04-25T11:26:22.330Z,27.7
2019-04-25T11:27:23.845Z,27.8
2019-04-25T11:28:23.417Z,27.8
2019-04-25T11:29:23.984Z,27.8
2019-04-25T11:30:22.436Z,27.8
2019-04-25T11:31:23.485Z,27.8
2019-04-25T11:32:23.779Z,27.7
2019-04-25T11:33:22.938Z,27.8
2019-04-25T11:34:22.807Z,27.8
2019-04-25T11:35:24.776Z,27.8
2019-04-25T11:36:22.528Z,27.9
2019-04-25T11:37:23.841Z,27.9
2019-04-25T11:38:23.726Z,27.9
2019-04-25T11:39:23.900Z,27.9
2019-04-25T11:40:23.393Z,28
2019-04-25T11:41:24.089Z,28.1
2019-04-25T11:42:23.289Z,28.2
2019-04-25T11:43:22.684Z,28.2
2019-04-25T11:44:24.388Z,28.2
2019-04-25T11:45:22.690Z,28.3
2019-04-25T11:46:24.137Z,28.3
2019-04-25T11:47:24.117Z,28.3
2019-04-25T11:48:23.809Z,28.3
2019-04-25T11:49:23.817Z,28.4
2019-04-25T11:50:22.737Z,28.4
2019-04-25T11:51:23.975Z,28.5
2019-04-25T11:52:27.949Z,28.6
2019-04-25T11:53:24.708Z,28.7
2019-04-25T11:54:24.248Z,28.7
2019-04-25T11:55:23.869Z,28.7
2019-04-25T11:56:24.101Z,28.7
2019-04-25T11:57:23.283Z,28.8
2019-04-25T11:58:23.534Z,28.8
2019-04-25T11:59:23.492Z,28.8
2019-04-25T12:00:24.414Z,28.7
2019-04-25T12:01:24.171Z,28.7
2019-04-25T12:02:23.938Z,28.7
2019-04-25T12:03:22.963Z,28.6
2019-04-25T12:04:23.900Z,28.6
2019-04-25T12:05:23.465Z,28.6
2019-04-25T12:06:24.281Z,28.7
2019-04-25T12:07:23.660Z,28.7
2019-04-25T12:08:24.260Z,28.7
2019-04-25T12:09:24.071Z,28.7
2019-04-25T12:10:24.213Z,28.7
2019-04-25T12:11:23.623Z,28.6
2019-04-25T12:12:23.567Z,28.6
2019-04-25T12:13:24.233Z,28.6
2019-04-25T12:14:23.495Z,28.5
2019-04-25T12:15:24.067Z,28.4
2019-04-25T12:16:24.612Z,28.4
2019-04-25T12:17:23.543Z,28.4
2019-04-25T12:18:23.543Z,28.5
2019-04-25T12:19:34.474Z,28.5
2019-04-25T12:20:23.622Z,28.6
2019-04-25T12:21:23.988Z,28.7
2019-04-25T12:22:23.888Z,28.8
2019-04-25T12:23:23.906Z,28.8
2019-04-25T12:24:23.993Z,28.8
2019-04-25T12:25:23.905Z,28.7
2019-04-25T12:26:26.124Z,28.5
2019-04-25T12:27:24.014Z,28.5
2019-04-25T12:28:24.112Z,28.5
2019-04-25T12:29:24.447Z,28.4
2019-04-25T12:30:36.344Z,28.4
2019-04-25T12:31:24.262Z,28.4
2019-04-25T12:32:24.276Z,28.3
2019-04-25T12:33:24.294Z,28.3
2019-04-25T12:34:24.387Z,28.3
2019-04-25T12:35:24.410Z,28.3
2019-04-25T12:36:24.500Z,28.3
2019-04-25T12:37:25.012Z,28.3
2019-04-25T12:38:24.649Z,28.3
2019-04-25T12:39:24.543Z,28.2
2019-04-25T12:40:24.632Z,28.2
2019-04-25T12:41:24.708Z,28.2
2019-04-25T12:42:24.709Z,28.2
2019-04-25T12:43:24.796Z,28.2
2019-04-25T12:44:24.789Z,28.3
2019-04-25T12:45:24.857Z,28.3
2019-04-25T12:46:24.909Z,28.3
2019-04-25T12:47:24.959Z,28.3
2019-04-25T12:48:24.981Z,28.3
2019-04-25T12:49:25.287Z,28.3
2019-04-25T12:50:25.064Z,28.3
2019-04-25T12:51:25.342Z,28.3
2019-04-25T12:52:25.256Z,28.3
2019-04-25T12:53:25.204Z,28.3
2019-04-25T12:54:25.399Z,28.2
2019-04-25T12:55:25.260Z,28.2
2019-04-25T12:56:25.295Z,28.2
2019-04-25T12:57:25.596Z,28.2
2019-04-25T12:58:25.609Z,28.2
2019-04-25T12:59:25.522Z,28.3
2019-04-25T13:00:25.696Z,28.3
2019-04-25T13:01:25.686Z,28.4
2019-04-25T13:02:25.517Z,28.4
2019-04-25T13:03:25.618Z,28.5
2019-04-25T13:04:25.607Z,28.5
2019-04-25T13:05:25.898Z,28.5
2019-04-25T13:06:25.731Z,28.5
2019-04-25T13:07:25.894Z,28.6
2019-04-25T13:08:25.842Z,28.6
2019-04-25T13:09:26.000Z,28.6
2019-04-25T13:10:25.821Z,28.6
2019-04-25T13:11:26.115Z,28.6
2019-04-25T13:12:25.878Z,28.7
2019-04-25T13:13:26.079Z,28.7
2019-04-25T13:14:25.969Z,28.7
2019-04-25T13:15:26.978Z,28.7
2019-04-25T13:16:26.088Z,28.7
2019-04-25T13:17:28.289Z,28.7
2019-04-25T13:18:26.177Z,28.7
2019-04-25T13:19:26.547Z,28.7
2019-04-25T13:20:26.242Z,28.7
2019-04-25T13:21:26.201Z,28.7
2019-04-25T13:22:26.207Z,28.7
2019-04-25T13:23:26.234Z,28.7
2019-04-25T13:24:26.497Z,28.7
2019-04-25T13:26:26.292Z,28.6
2019-04-25T13:26:31.323Z,28.6